Time;durP1;ratioP1;P1;durP2;ratioP2;P2;SDS_P1;SDS_P2;PMS_P1;PMS_P2;Temp;Humidity;BMP_temperature;BMP_pressure;BME280_temperature;BME280_humidity;BME280_pressure;Samples;Min_cycle;Max_cycle;Signal;HPM_P1;HPM_P2
2024/01/20 00:00:12;;;;;;;10.75;6.55;;;-0.50;99.90;;;;;;5011035;28;20206;-72
2024/01/20 00:02:37;;;;;;;8.00;5.90;;;-0.60;99.90;;;;;;4953128;28;20176;-72
2024/01/20 00:05:03;;;;;;;9.07;6.83;;;-0.60;99.90;;;;;;5010393;28;20570;-71
2024/01/20 00:07:29;;;;;;;7.60;5.57;;;-0.60;99.90;;;;;;4992549;28;20852;-71
2024/01/20 00:09:54;;;;;;;7.87;5.20;;;-0.60;99.90;;;;;;4993236;28;20612;-72
2024/01/20 00:12:20;;;;;;;8.07;5.70;;;-0.60;99.90;;;;;;4993124;28;20193;-71
2024/01/20 00:14:46;;;;;;;12.30;6.37;;;-0.60;99.90;;;;;;5010113;28;20201;-71
2024/01/20 00:17:11;;;;;;;10.40;7.20;;;-0.60;99.90;;;;;;5010719;28;20659;-71
2024/01/20 00:19:37;;;;;;;7.77;5.43;;;-0.60;99.90;;;;;;5010512;28;20200;-72
2024/01/20 00:22:03;;;;;;;11.40;5.88;;;-0.60;99.90;;;;;;5014327;28;20185;-72
2024/01/20 00:24:29;;;;;;;9.57;7.27;;;-0.60;99.90;;;;;;4992372;28;20202;-72
2024/01/20 00:26:55;;;;;;;9.67;6.60;;;-0.70;99.90;;;;;;4992866;28;20189;-72
2024/01/20 00:29:20;;;;;;;7.70;5.47;;;-0.70;99.90;;;;;;4992996;28;20198;-72
2024/01/20 00:31:47;;;;;;;9.17;6.17;;;-0.70;99.90;;;;;;5010697;28;20166;-72
2024/01/20 00:34:12;;;;;;;7.18;6.03;;;-0.70;99.90;;;;;;4992418;28;20585;-71
2024/01/20 00:36:38;;;;;;;10.90;7.47;;;-0.70;99.90;;;;;;5010568;28;20761;-72
2024/01/20 00:39:04;;;;;;;9.70;6.20;;;-0.70;99.90;;;;;;4992802;28;20264;-72
2024/01/20 00:41:30;;;;;;;15.60;9.60;;;-0.70;99.90;;;;;;4992722;28;20577;-71
2024/01/20 00:43:58;;;;;;;17.58;11.75;;;-0.70;99.90;;;;;;4992082;28;20202;-72
2024/01/20 00:46:24;;;;;;;17.48;11.38;;;-0.80;99.90;;;;;;5009126;28;20193;-71
2024/01/20 00:48:50;;;;;;;13.77;10.02;;;-0.80;99.90;;;;;;5010149;28;20256;-72
2024/01/20 00:51:16;;;;;;;15.60;9.63;;;-0.80;99.90;;;;;;5010241;28;20170;-71
2024/01/20 00:53:42;;;;;;;12.43;8.73;;;-0.80;99.90;;;;;;5009373;28;20175;-72
2024/01/20 00:56:07;;;;;;;12.97;7.50;;;-0.80;99.90;;;;;;4991999;28;20659;-72
2024/01/20 00:58:33;;;;;;;9.57;7.80;;;-0.80;99.90;;;;;;4992613;28;20218;-72
2024/01/20 01:00:59;;;;;;;11.17;7.23;;;-0.90;99.90;;;;;;4992834;28;20175;-71
2024/01/20 01:03:24;;;;;;;8.27;7.00;;;-0.90;99.90;;;;;;4999348;28;20190;-71
2024/01/20 01:05:50;;;;;;;10.80;7.80;;;-0.90;99.90;;;;;;4991981;28;20269;-71
2024/01/20 01:08:16;;;;;;;13.33;7.60;;;-0.90;99.90;;;;;;5010111;28;20995;-71
2024/01/20 01:10:42;;;;;;;9.77;6.00;;;-1.00;99.90;;;;;;5010105;28;20627;-71
2024/01/20 01:13:08;;;;;;;14.23;7.43;;;-1.00;99.90;;;;;;4992573;28;20668;-71
2024/01/20 01:15:33;;;;;;;9.10;6.23;;;-1.00;99.90;;;;;;4991831;28;20676;-71
2024/01/20 01:17:59;;;;;;;11.03;5.73;;;-1.00;99.90;;;;;;4995199;28;20676;-71
2024/01/20 01:20:25;;;;;;;8.70;5.93;;;-1.00;99.90;;;;;;4996578;28;20221;-71
2024/01/20 01:22:51;;;;;;;9.10;5.47;;;-1.00;99.90;;;;;;4996258;28;20205;-71
2024/01/20 01:25:17;;;;;;;8.95;5.32;;;-1.00;99.90;;;;;;5012818;28;20305;-71
2024/01/20 01:27:43;;;;;;;7.55;5.65;;;-1.00;99.90;;;;;;5013544;28;20228;-71
2024/01/20 01:30:09;;;;;;;7.87;5.60;;;-1.00;99.90;;;;;;4995783;28;20195;-72
2024/01/20 01:32:34;;;;;;;9.43;6.20;;;-1.00;99.90;;;;;;4995651;28;20280;-72
2024/01/20 01:35:00;;;;;;;10.20;7.00;;;-1.10;99.90;;;;;;5012928;28;20532;-71
2024/01/20 01:37:27;;;;;;;11.50;6.67;;;-1.10;99.90;;;;;;4995663;28;20189;-72
2024/01/20 01:39:53;;;;;;;14.75;7.15;;;-1.00;99.90;;;;;;5013051;28;20605;-71
2024/01/20 01:42:18;;;;;;;12.77;8.20;;;-1.10;99.90;;;;;;4995545;28;20203;-72
2024/01/20 01:44:44;;;;;;;10.30;7.70;;;-1.10;99.90;;;;;;5012677;28;20252;-71
2024/01/20 01:47:10;;;;;;;10.30;7.43;;;-1.10;99.90;;;;;;4999350;28;20267;-71
2024/01/20 01:49:36;;;;;;;12.50;7.87;;;-1.10;99.90;;;;;;4979424;28;20214;-71
2024/01/20 01:52:02;;;;;;;10.15;7.80;;;-1.20;99.90;;;;;;5013295;28;20301;-72
2024/01/20 01:54:28;;;;;;;13.43;8.68;;;-1.20;99.90;;;;;;5012215;28;20197;-72
2024/01/20 01:57:17;;;;;;;14.13;9.13;;;-1.20;99.90;;;;;;4979367;28;20186;-72
2024/01/20 02:00:23;;;;;;;12.55;9.80;;;-1.20;99.90;;;;;;4981229;28;20624;-72
2024/01/20 02:02:49;;;;;;;15.53;9.10;;;-1.30;99.90;;;;;;5011311;28;20175;-72
2024/01/20 02:05:15;;;;;;;16.10;10.30;;;-1.30;99.90;;;;;;4996605;28;20618;-72
2024/01/20 02:07:42;;;;;;;14.70;10.47;;;-1.30;99.90;;;;;;4981140;28;20174;-71
2024/01/20 02:10:10;;;;;;;13.50;8.07;;;-1.30;99.90;;;;;;5017169;28;20226;-72
2024/01/20 02:12:37;;;;;;;12.93;9.32;;;-1.40;99.90;;;;;;5012546;28;20181;-72
2024/01/20 02:15:03;;;;;;;15.60;10.40;;;-1.40;99.90;;;;;;5012031;28;20182;-71
2024/01/20 02:17:28;;;;;;;13.52;9.93;;;-1.40;99.90;;;;;;5015014;28;20228;-71
2024/01/20 02:19:54;;;;;;;14.30;9.87;;;-1.40;99.90;;;;;;5012461;28;20190;-71
2024/01/20 02:22:19;;;;;;;16.80;10.50;;;-1.40;99.90;;;;;;5012483;28;20182;-71
2024/01/20 02:24:49;;;;;;;12.57;9.27;;;-1.50;99.90;;;;;;4978006;28;20293;-72
2024/01/20 02:27:17;;;;;;;15.50;9.70;;;-1.50;99.90;;;;;;5002699;28;20214;-71
2024/01/20 02:29:42;;;;;;;14.05;9.00;;;-1.50;99.90;;;;;;4997277;28;20236;-71
2024/01/20 02:32:08;;;;;;;16.77;9.47;;;-1.50;99.90;;;;;;5014422;28;20205;-71
2024/01/20 02:34:34;;;;;;;13.97;9.77;;;-1.60;99.90;;;;;;4994681;28;20177;-71
2024/01/20 02:36:59;;;;;;;13.63;10.10;;;-1.50;99.90;;;;;;5042108;22;20240;-75
2024/01/20 02:39:25;;;;;;;13.83;9.40;;;-1.60;99.90;;;;;;5013612;28;20655;-75
2024/01/20 02:41:51;;;;;;;14.33;9.30;;;-1.60;99.90;;;;;;4997655;28;21240;-75
2024/01/20 02:44:17;;;;;;;15.07;10.43;;;-1.60;99.90;;;;;;5021669;28;20201;-75
2024/01/20 02:46:43;;;;;;;14.43;9.10;;;-1.60;99.90;;;;;;4997457;28;20197;-76
2024/01/20 02:49:09;;;;;;;19.60;11.73;;;-1.60;99.90;;;;;;5027168;28;20178;-75
2024/01/20 02:51:34;;;;;;;13.63;9.73;;;-1.60;99.90;;;;;;5018595;28;20710;-75
2024/01/20 02:54:00;;;;;;;16.67;10.43;;;-1.60;99.90;;;;;;5002234;28;20581;-75
2024/01/20 02:56:26;;;;;;;13.90;9.48;;;-1.60;99.90;;;;;;5003438;28;20206;-75
2024/01/20 02:58:52;;;;;;;14.47;9.93;;;-1.60;99.90;;;;;;5025358;28;20311;-75
2024/01/20 03:01:18;;;;;;;18.20;10.40;;;-1.60;99.90;;;;;;5003479;28;20182;-75
2024/01/20 03:03:45;;;;;;;9.97;8.43;;;-1.60;99.90;;;;;;5032639;28;20604;-75
2024/01/20 03:06:12;;;;;;;19.13;10.68;;;-1.60;99.90;;;;;;5025245;28;20202;-75
2024/01/20 03:08:38;;;;;;;18.45;13.50;;;-1.60;99.90;;;;;;5011643;28;20277;-74
2024/01/20 03:11:04;;;;;;;14.47;10.77;;;-1.60;99.90;;;;;;5036912;28;20213;-75
2024/01/20 03:13:29;;;;;;;16.77;11.10;;;-1.70;99.90;;;;;;5031795;28;20227;-75
2024/01/20 03:15:55;;;;;;;17.70;11.53;;;-1.70;99.90;;;;;;5019640;28;21018;-75
2024/01/20 03:18:21;;;;;;;16.47;12.00;;;-1.70;99.90;;;;;;5002805;28;20178;-76
2024/01/20 03:20:46;;;;;;;20.60;13.10;;;-1.70;99.90;;;;;;4997396;28;20177;-75
2024/01/20 03:23:12;;;;;;;14.90;11.90;;;-1.80;99.90;;;;;;5014066;28;20639;-76
2024/01/20 03:25:38;;;;;;;16.83;12.13;;;-1.80;99.90;;;;;;5028459;28;20201;-75
2024/01/20 03:28:04;;;;;;;20.53;13.43;;;-1.80;99.90;;;;;;5016011;28;20178;-76
2024/01/20 03:30:29;;;;;;;16.73;11.13;;;-1.80;99.90;;;;;;5012783;28;20323;-76
2024/01/20 03:32:55;;;;;;;18.70;14.03;;;-1.80;99.90;;;;;;4993761;28;20639;-75
2024/01/20 03:35:22;;;;;;;19.13;13.63;;;-1.90;99.90;;;;;;5000875;28;20178;-73
2024/01/20 03:37:48;;;;;;;19.00;12.57;;;-1.90;99.90;;;;;;4997004;28;20188;-74
2024/01/20 03:40:14;;;;;;;19.27;13.50;;;-1.90;99.90;;;;;;5022669;28;20182;-75
2024/01/20 03:42:40;;;;;;;19.17;12.15;;;-2.00;99.90;;;;;;4992531;28;20193;-75
2024/01/20 03:45:06;;;;;;;19.47;12.63;;;-2.00;99.90;;;;;;5023119;28;20209;-74
2024/01/20 03:47:32;;;;;;;20.20;14.00;;;-2.00;99.90;;;;;;5019965;28;20198;-74
2024/01/20 03:49:57;;;;;;;19.17;13.00;;;-2.10;99.90;;;;;;4997694;28;20658;-75
2024/01/20 03:52:23;;;;;;;17.90;11.70;;;-2.10;99.90;;;;;;5029473;28;20263;-74
2024/01/20 03:54:49;;;;;;;19.97;13.07;;;-2.10;99.90;;;;;;5012505;28;20181;-75
2024/01/20 03:57:14;;;;;;;14.93;11.70;;;-2.10;99.90;;;;;;5029132;28;20202;-74
2024/01/20 03:59:40;;;;;;;20.83;12.57;;;-2.10;99.90;;;;;;5010629;28;20186;-75
2024/01/20 04:02:06;;;;;;;19.70;11.10;;;-2.10;99.90;;;;;;4998528;28;20192;-75
2024/01/20 04:04:31;;;;;;;20.53;13.30;;;-2.20;99.90;;;;;;4992743;28;20294;-74
2024/01/20 04:06:57;;;;;;;17.47;11.43;;;-2.20;99.90;;;;;;5012637;28;20612;-74
2024/01/20 04:09:23;;;;;;;21.53;13.23;;;-2.20;99.90;;;;;;5030107;28;20204;-74
2024/01/20 04:11:49;;;;;;;16.63;11.13;;;-2.20;99.90;;;;;;5025758;28;20609;-74
2024/01/20 04:14:15;;;;;;;23.43;12.33;;;-2.20;99.90;;;;;;4999422;28;20694;-75
2024/01/20 04:16:40;;;;;;;18.17;11.60;;;-2.20;99.90;;;;;;5004031;28;20624;-74
2024/01/20 04:19:07;;;;;;;17.53;12.50;;;-2.20;99.90;;;;;;4992643;28;20185;-75
2024/01/20 04:21:33;;;;;;;17.35;11.68;;;-2.20;99.90;;;;;;5010001;28;20227;-74
2024/01/20 04:23:58;;;;;;;14.57;12.87;;;-2.20;99.90;;;;;;5024010;28;20759;-75
2024/01/20 04:26:24;;;;;;;24.43;14.40;;;-2.30;99.90;;;;;;5013059;28;20228;-74
2024/01/20 04:28:50;;;;;;;25.25;15.43;;;-2.30;99.90;;;;;;5012359;28;20205;-75
2024/01/20 04:31:16;;;;;;;24.47;15.23;;;-2.40;99.90;;;;;;5022000;28;20173;-74
2024/01/20 04:33:41;;;;;;;18.20;12.50;;;-2.40;99.90;;;;;;5019457;28;20818;-74
2024/01/20 04:36:07;;;;;;;19.80;14.53;;;-2.40;99.90;;;;;;5002606;28;20209;-75
2024/01/20 04:38:35;;;;;;;23.40;11.70;;;-2.40;99.90;;;;;;4995221;28;20182;-75
2024/01/20 04:41:01;;;;;;;13.30;11.43;;;-2.40;99.90;;;;;;4992867;28;20954;-74
2024/01/20 04:43:28;;;;;;;16.10;10.33;;;-2.40;99.90;;;;;;5025312;28;20174;-74
2024/01/20 04:45:54;;;;;;;14.77;11.32;;;-2.40;99.90;;;;;;5028016;28;20208;-74
2024/01/20 04:48:20;;;;;;;19.10;12.52;;;-2.40;99.90;;;;;;5021430;28;20186;-75
2024/01/20 04:50:46;;;;;;;21.27;12.23;;;-2.40;99.90;;;;;;4992516;28;20179;-75
2024/01/20 04:53:11;;;;;;;22.70;14.07;;;-2.40;99.90;;;;;;5016858;28;20724;-75
2024/01/20 04:55:37;;;;;;;22.70;13.80;;;-2.50;99.90;;;;;;5015339;28;20925;-75
2024/01/20 04:58:03;;;;;;;20.50;12.60;;;-2.50;99.90;;;;;;5025851;28;20554;-74
2024/01/20 05:00:29;;;;;;;19.03;12.57;;;-2.50;99.90;;;;;;5012250;28;20190;-74
2024/01/20 05:02:55;;;;;;;18.27;11.97;;;-2.50;99.90;;;;;;5025590;28;20592;-74
2024/01/20 05:05:20;;;;;;;19.07;12.03;;;-2.50;99.90;;;;;;5024418;28;20580;-75
2024/01/20 05:07:46;;;;;;;18.10;11.80;;;-2.50;99.90;;;;;;5014758;28;20585;-74
2024/01/20 05:10:12;;;;;;;16.90;11.20;;;-2.50;99.90;;;;;;5032071;28;20196;-75
2024/01/20 05:12:38;;;;;;;18.70;11.45;;;-2.50;99.90;;;;;;4999490;28;20266;-75
2024/01/20 05:15:10;;;;;;;14.77;10.03;;;-2.50;99.90;;;;;;5032574;28;20618;-74
2024/01/20 05:17:36;;;;;;;18.88;11.05;;;-2.50;99.90;;;;;;5015418;28;20223;-75
2024/01/20 05:20:02;;;;;;;14.77;10.57;;;-2.50;99.90;;;;;;5032107;28;20180;-74
2024/01/20 05:22:28;;;;;;;16.00;11.37;;;-2.50;99.90;;;;;;5032179;28;20170;-75
2024/01/20 05:24:53;;;;;;;17.00;10.87;;;-2.50;99.90;;;;;;5032230;28;20635;-75
2024/01/20 05:27:19;;;;;;;14.70;9.83;;;-2.50;99.90;;;;;;5014846;28;20200;-75
2024/01/20 05:29:45;;;;;;;21.53;13.80;;;-2.50;99.90;;;;;;5030994;28;20176;-75
2024/01/20 05:32:11;;;;;;;17.15;10.63;;;-2.50;99.90;;;;;;5009523;28;20225;-75
2024/01/20 05:34:36;;;;;;;18.70;13.10;;;-2.50;99.90;;;;;;5019649;28;20547;-75
2024/01/20 05:37:02;;;;;;;16.77;11.87;;;-2.50;99.90;;;;;;4999694;28;20321;-75
2024/01/20 05:39:28;;;;;;;14.90;10.60;;;-2.60;99.90;;;;;;5014864;28;20200;-74
2024/01/20 05:41:54;;;;;;;16.80;10.30;;;-2.60;99.90;;;;;;5032649;28;21140;-75
2024/01/20 05:44:19;;;;;;;16.40;11.20;;;-2.60;99.90;;;;;;5014788;28;20201;-75
2024/01/20 05:46:45;;;;;;;20.40;11.90;;;-2.60;99.90;;;;;;5014802;28;20613;-74
2024/01/20 05:49:11;;;;;;;19.27;12.60;;;-2.60;99.90;;;;;;5031536;28;20626;-74
2024/01/20 05:51:37;;;;;;;19.03;11.20;;;-2.60;99.90;;;;;;5032503;28;20227;-75
2024/01/20 05:54:03;;;;;;;17.30;10.90;;;-2.60;99.90;;;;;;5030617;28;20188;-74
2024/01/20 05:56:28;;;;;;;16.35;11.13;;;-2.60;99.90;;;;;;5022823;28;20202;-74
2024/01/20 05:58:54;;;;;;;17.63;11.70;;;-2.60;99.90;;;;;;5032248;28;20291;-74
2024/01/20 06:01:20;;;;;;;19.53;13.17;;;-2.60;99.90;;;;;;5015050;28;20791;-74
2024/01/20 06:03:45;;;;;;;19.93;11.07;;;-2.60;99.90;;;;;;5014928;28;20181;-74
2024/01/20 06:06:11;;;;;;;25.57;15.30;;;-2.60;99.90;;;;;;5031381;28;20759;-74
2024/01/20 06:08:37;;;;;;;23.20;14.10;;;-2.60;99.90;;;;;;5006582;28;20208;-74
2024/01/20 06:11:03;;;;;;;21.17;12.30;;;-2.70;99.90;;;;;;5032609;28;20174;-74
2024/01/20 06:13:29;;;;;;;17.20;10.60;;;-2.70;99.90;;;;;;5015025;28;20178;-75
2024/01/20 06:15:55;;;;;;;17.83;10.90;;;-2.70;99.90;;;;;;5015987;28;20632;-74
2024/01/20 06:18:21;;;;;;;20.83;12.67;;;-2.70;99.90;;;;;;5039771;28;20186;-75
2024/01/20 06:20:47;;;;;;;20.80;13.73;;;-2.70;99.90;;;;;;5021821;28;21189;-74
2024/01/20 06:23:12;;;;;;;19.53;12.77;;;-2.80;99.90;;;;;;5020949;28;20268;-75
2024/01/20 06:25:38;;;;;;;17.30;11.73;;;-2.80;99.90;;;;;;5019103;28;20201;-74
2024/01/20 06:28:05;;;;;;;16.67;11.55;;;-2.80;99.90;;;;;;5017069;28;21152;-74
2024/01/20 06:30:32;;;;;;;17.65;11.60;;;-2.80;99.90;;;;;;5007008;28;20178;-75
2024/01/20 06:32:58;;;;;;;22.05;11.43;;;-2.80;99.90;;;;;;5023986;28;20173;-75
2024/01/20 06:35:24;;;;;;;17.98;11.40;;;-2.80;99.90;;;;;;5014999;28;20189;-75
2024/01/20 06:37:50;;;;;;;16.77;10.45;;;-2.80;99.90;;;;;;5020598;28;20525;-74
2024/01/20 06:40:16;;;;;;;16.00;11.77;;;-2.80;99.90;;;;;;5024928;28;20233;-74
2024/01/20 06:42:42;;;;;;;18.58;11.68;;;-2.90;99.90;;;;;;5012539;28;20183;-75
2024/01/20 06:45:08;;;;;;;17.98;12.27;;;-2.90;99.90;;;;;;5009034;28;20276;-75
2024/01/20 06:47:34;;;;;;;20.33;13.88;;;-2.90;99.90;;;;;;5002723;28;20194;-74
2024/01/20 06:50:00;;;;;;;19.50;13.00;;;-2.90;99.90;;;;;;5014149;28;20291;-75
2024/01/20 06:52:29;;;;;;;17.80;12.45;;;-2.90;99.90;;;;;;5030714;28;20577;-75
2024/01/20 06:54:55;;;;;;;16.38;10.60;;;-2.90;99.90;;;;;;4994771;28;20205;-75
2024/01/20 06:57:20;;;;;;;17.20;11.67;;;-2.90;99.90;;;;;;5023193;28;20235;-75
2024/01/20 06:59:46;;;;;;;20.57;12.20;;;-2.90;99.90;;;;;;5016232;28;20182;-74
2024/01/20 07:02:12;;;;;;;15.73;10.70;;;-2.90;99.90;;;;;;5013770;28;20182;-74
2024/01/20 07:04:37;;;;;;;19.47;11.60;;;-2.90;99.90;;;;;;5029618;28;20209;-75
2024/01/20 07:07:03;;;;;;;17.57;12.30;;;-2.90;99.90;;;;;;5013667;28;20630;-74
2024/01/20 07:09:29;;;;;;;16.63;10.65;;;-2.90;99.90;;;;;;5013488;28;20170;-75
2024/01/20 07:11:57;;;;;;;18.20;11.80;;;-2.90;99.90;;;;;;5031347;28;20170;-74
2024/01/20 07:14:26;;;;;;;21.90;13.00;;;-3.00;99.90;;;;;;5013147;28;20181;-75
2024/01/20 07:16:52;;;;;;;18.00;12.00;;;-3.00;99.90;;;;;;5013207;28;20198;-75
2024/01/20 07:19:18;;;;;;;15.05;10.10;;;-3.00;99.90;;;;;;5013453;28;20178;-75
2024/01/20 07:21:43;;;;;;;13.80;9.57;;;-3.00;99.90;;;;;;5031098;28;20260;-75
2024/01/20 07:24:09;;;;;;;15.53;10.07;;;-2.90;99.90;;;;;;5021949;28;21189;-75
2024/01/20 07:26:35;;;;;;;17.67;9.97;;;-2.90;99.90;;;;;;5030941;28;20675;-75
2024/01/20 07:29:00;;;;;;;13.67;9.50;;;-2.90;99.90;;;;;;5013412;28;20177;-75
2024/01/20 07:31:26;;;;;;;13.30;9.07;;;-2.90;99.90;;;;;;5013026;28;20181;-76
2024/01/20 07:33:52;;;;;;;16.73;9.93;;;-2.90;99.90;;;;;;5029103;28;20174;-75
2024/01/20 07:36:18;;;;;;;19.90;12.82;;;-2.90;99.90;;;;;;5030633;28;20753;-74
2024/01/20 07:38:43;;;;;;;14.97;10.20;;;-2.90;99.90;;;;;;5011881;28;20177;-74
2024/01/20 07:41:09;;;;;;;17.50;11.23;;;-2.90;99.90;;;;;;5016084;28;20177;-76
2024/01/20 07:43:35;;;;;;;17.07;10.00;;;-2.90;99.90;;;;;;5003523;28;20179;-75
2024/01/20 07:46:14;;;;;;;17.17;9.95;;;-2.90;99.90;;;;;;5118180;27;20787;-75
2024/01/20 07:48:40;;;;;;;15.37;9.67;;;-2.90;99.90;;;;;;5117210;27;20178;-75
2024/01/20 07:51:07;;;;;;;14.57;12.00;;;-2.80;99.90;;;;;;5129410;28;20941;-75
2024/01/20 07:53:32;;;;;;;18.52;11.40;;;-2.80;99.90;;;;;;5124496;28;20587;-75
2024/01/20 07:55:58;;;;;;;19.13;11.50;;;-2.80;99.90;;;;;;5122251;27;20263;-75
2024/01/20 07:58:24;;;;;;;18.23;11.50;;;-2.80;99.90;;;;;;5104487;28;20182;-74
2024/01/20 08:00:50;;;;;;;20.50;10.93;;;-2.70;99.90;;;;;;5109938;28;20213;-75
2024/01/20 08:03:15;;;;;;;14.13;10.00;;;-2.70;99.90;;;;;;5098814;28;21013;-75
2024/01/20 08:05:41;;;;;;;18.43;12.67;;;-2.70;99.90;;;;;;5106055;28;20198;-74
2024/01/20 08:08:07;;;;;;;16.87;11.53;;;-2.60;99.90;;;;;;5103698;28;20248;-74
2024/01/20 08:10:33;;;;;;;16.67;10.20;;;-2.70;99.90;;;;;;5090046;28;20239;-74
2024/01/20 08:12:59;;;;;;;14.93;11.13;;;-2.70;99.90;;;;;;5119837;28;20715;-74
2024/01/20 08:15:25;;;;;;;15.40;10.53;;;-2.70;99.90;;;;;;5111148;28;20198;-75
2024/01/20 08:17:51;;;;;;;19.15;11.45;;;-2.70;99.90;;;;;;5112961;28;20190;-75
2024/01/20 08:20:17;;;;;;;16.20;10.30;;;-2.60;99.90;;;;;;5108492;28;20560;-75
2024/01/20 08:22:43;;;;;;;15.73;10.25;;;-2.60;99.90;;;;;;5083129;28;20167;-75
2024/01/20 08:25:09;;;;;;;17.10;11.47;;;-2.60;99.90;;;;;;5119995;28;20201;-75
2024/01/20 08:27:35;;;;;;;12.35;8.95;;;-2.60;99.90;;;;;;5127270;28;20191;-75
2024/01/20 08:30:01;;;;;;;14.13;10.17;;;-2.60;99.90;;;;;;5128064;28;20193;-75
2024/01/20 08:32:26;;;;;;;16.90;11.00;;;-2.50;99.90;;;;;;5112932;28;20596;-75
2024/01/20 08:34:52;;;;;;;24.80;11.67;;;-2.50;99.90;;;;;;5099290;28;20591;-75
2024/01/20 08:37:18;;;;;;;14.07;9.00;;;-2.40;99.90;;;;;;5114926;28;20983;-75
2024/01/20 08:39:47;;;;;;;13.93;9.93;;;-2.40;99.90;;;;;;5129382;28;20174;-75
2024/01/20 08:42:15;;;;;;;14.93;10.50;;;-2.40;99.90;;;;;;5102652;28;20257;-77
2024/01/20 08:44:40;;;;;;;16.90;11.40;;;-2.40;99.90;;;;;;5097041;28;20316;-75
2024/01/20 08:47:06;;;;;;;14.47;9.83;;;-2.40;99.90;;;;;;5106197;28;21244;-75
2024/01/20 08:49:32;;;;;;;18.33;12.77;;;-2.40;99.90;;;;;;5104524;28;20570;-78
2024/01/20 08:51:58;;;;;;;18.60;11.23;;;-2.40;99.90;;;;;;5119856;28;20170;-77
2024/01/20 08:54:23;;;;;;;15.43;10.50;;;-2.40;99.90;;;;;;5108071;28;20179;-78
2024/01/20 08:56:49;;;;;;;16.63;10.23;;;-2.30;99.90;;;;;;5109960;28;20198;-77
2024/01/20 08:59:15;;;;;;;19.40;11.68;;;-2.30;99.90;;;;;;5088015;28;20175;-77
2024/01/20 09:01:41;;;;;;;16.87;12.50;;;-2.30;99.90;;;;;;5104530;28;20179;-77
2024/01/20 09:04:06;;;;;;;18.40;12.03;;;-2.20;99.90;;;;;;5074608;28;20203;-77
2024/01/20 09:06:32;;;;;;;14.80;9.73;;;-2.20;99.90;;;;;;5074651;28;20680;-77
2024/01/20 09:08:58;;;;;;;16.00;11.17;;;-2.20;99.90;;;;;;5104059;28;20173;-77
2024/01/20 09:11:23;;;;;;;19.60;12.53;;;-2.10;99.90;;;;;;5104549;28;20694;-77
2024/01/20 09:13:49;;;;;;;16.37;10.83;;;-2.10;99.90;;;;;;5077989;28;20587;-78
2024/01/20 09:16:15;;;;;;;16.10;10.90;;;-2.00;99.90;;;;;;5108040;28;20195;-77
2024/01/20 09:18:41;;;;;;;19.57;12.83;;;-2.00;99.90;;;;;;5089795;28;20588;-77
2024/01/20 09:21:11;;;;;;;17.70;11.13;;;-1.90;99.90;;;;;;5092763;28;20587;-77
2024/01/20 09:23:37;;;;;;;18.08;11.75;;;-1.80;99.90;;;;;;5106793;28;20627;-77
2024/01/20 09:26:03;;;;;;;17.92;12.52;;;-1.70;99.90;;;;;;5109204;28;20211;-76
2024/01/20 09:28:29;;;;;;;14.45;10.73;;;-1.70;99.90;;;;;;5069597;28;20183;-77
2024/01/20 09:30:55;;;;;;;14.03;9.20;;;-1.60;99.90;;;;;;5097742;28;20206;-76
2024/01/20 09:33:21;;;;;;;21.45;12.35;;;-1.50;99.90;;;;;;5092133;28;20167;-77
2024/01/20 09:35:47;;;;;;;15.13;10.33;;;-1.40;99.90;;;;;;5118245;28;20201;-77
2024/01/20 09:38:12;;;;;;;14.15;10.35;;;-1.40;99.90;;;;;;5114046;28;20227;-74
2024/01/20 09:40:38;;;;;;;22.87;13.00;;;-1.30;99.90;;;;;;5111893;28;20700;-75
2024/01/20 09:43:04;;;;;;;16.83;10.93;;;-1.30;99.90;;;;;;5111761;28;20931;-75
2024/01/20 09:45:31;;;;;;;19.02;12.90;;;-1.30;99.90;;;;;;5111946;28;20217;-75
2024/01/20 09:47:57;;;;;;;18.30;13.38;;;-1.20;99.90;;;;;;5111124;28;20217;-75
2024/01/20 09:50:23;;;;;;;18.35;12.73;;;-1.20;99.90;;;;;;5103663;28;20629;-75
2024/01/20 09:53:03;;;;;;;18.30;11.80;;;-1.20;99.90;;;;;;5091613;28;20155;-75
2024/01/20 09:55:28;;;;;;;16.42;11.75;;;-1.20;99.90;;;;;;5099580;28;20249;-75
2024/01/20 09:57:56;;;;;;;18.27;11.70;;;-1.10;99.90;;;;;;5094335;28;20171;-76
2024/01/20 10:00:23;;;;;;;15.35;10.77;;;-1.00;99.90;;;;;;5099992;28;20213;-75
2024/01/20 10:02:49;;;;;;;15.32;11.15;;;-0.90;99.90;;;;;;5104680;28;20179;-75
2024/01/20 10:05:15;;;;;;;17.33;10.73;;;-0.90;99.90;;;;;;5059201;28;20191;-75
2024/01/20 10:07:42;;;;;;;18.02;12.73;;;-0.80;99.90;;;;;;5074267;28;20605;-75
2024/01/20 10:10:12;;;;;;;17.67;13.13;;;-0.70;99.90;;;;;;5094616;28;20167;-75
2024/01/20 10:12:37;;;;;;;19.50;12.75;;;-0.70;99.90;;;;;;5105589;28;20171;-74
2024/01/20 10:15:04;;;;;;;17.20;12.00;;;-0.70;99.90;;;;;;5108807;28;20175;-76
2024/01/20 10:17:35;;;;;;;18.55;11.32;;;-0.70;99.90;;;;;;5089462;28;20278;-75
2024/01/20 10:20:01;;;;;;;16.23;12.02;;;-0.70;99.90;;;;;;5100076;28;20176;-74
2024/01/20 10:22:27;;;;;;;21.47;13.57;;;-0.60;99.90;;;;;;5080423;28;20225;-74
2024/01/20 10:24:53;;;;;;;19.37;13.60;;;-0.60;99.90;;;;;;5088080;28;21280;-74
2024/01/20 10:27:25;;;;;;;17.50;11.47;;;-0.60;99.90;;;;;;5102770;28;20556;-75
2024/01/20 10:29:51;;;;;;;19.58;12.13;;;-0.50;99.90;;;;;;5077856;28;20540;-74
2024/01/20 10:32:17;;;;;;;17.45;12.63;;;-0.50;99.90;;;;;;5102422;28;20206;-75
2024/01/20 10:34:44;;;;;;;19.20;11.90;;;-0.40;99.90;;;;;;5110348;28;20219;-74
2024/01/20 10:37:11;;;;;;;15.65;10.32;;;-0.40;99.90;;;;;;5110717;28;20507;-74
2024/01/20 10:39:43;;;;;;;20.65;11.13;;;-0.30;99.90;;;;;;5111817;28;20183;-74
2024/01/20 10:42:12;;;;;;;16.35;11.90;;;-0.20;99.90;;;;;;5110581;28;20229;-74
2024/01/20 10:45:04;;;;;;;16.83;9.32;;;-0.20;99.90;;;;;;5109804;28;20211;-74
2024/01/20 10:47:38;;;;;;;14.75;10.18;;;-0.10;99.90;;;;;;5105402;28;20714;-74
2024/01/20 10:50:05;;;;;;;14.75;11.45;;;0.00;99.90;;;;;;5104143;28;20197;-74
2024/01/20 10:52:37;;;;;;;19.25;13.20;;;0.10;99.90;;;;;;5097552;28;20178;-74
2024/01/20 10:55:07;;;;;;;21.20;12.07;;;0.20;99.90;;;;;;5094346;28;20278;-75
2024/01/20 10:57:33;;;;;;;17.88;12.00;;;0.20;99.90;;;;;;5110494;28;20247;-75
2024/01/20 11:00:00;;;;;;;16.00;11.10;;;0.30;99.90;;;;;;5093395;28;20171;-74
2024/01/20 11:02:27;;;;;;;16.50;12.30;;;0.30;99.90;;;;;;5110761;28;20183;-74
2024/01/20 11:04:53;;;;;;;18.00;12.13;;;0.40;99.90;;;;;;5093458;28;20249;-75
2024/01/20 11:07:29;;;;;;;15.85;12.07;;;0.40;99.90;;;;;;5073110;28;20187;-74
2024/01/20 11:10:00;;;;;;;15.18;8.98;;;0.50;99.90;;;;;;5090343;28;20186;-74
2024/01/20 11:12:29;;;;;;;16.40;11.93;;;0.60;99.90;;;;;;5104413;28;20171;-74
2024/01/20 11:14:58;;;;;;;16.50;11.20;;;0.60;99.90;;;;;;5111170;28;20200;-74
2024/01/20 11:17:24;;;;;;;16.05;10.50;;;0.70;99.90;;;;;;5111962;28;20201;-74
2024/01/20 11:19:51;;;;;;;22.95;13.32;;;0.80;99.90;;;;;;5106772;28;20175;-74
2024/01/20 11:22:49;;;;;;;17.58;12.27;;;0.80;99.90;;;;;;5099179;28;20186;-74
2024/01/20 11:25:17;;;;;;;17.00;12.43;;;0.80;99.90;;;;;;5082338;28;20264;-74
2024/01/20 11:27:48;;;;;;;16.85;10.70;;;0.90;99.90;;;;;;5072141;28;20244;-75
2024/01/20 11:30:25;;;;;;;15.30;11.80;;;1.00;99.90;;;;;;5110293;28;20163;-74
2024/01/20 11:32:50;;;;;;;16.75;10.95;;;0.90;99.90;;;;;;5111737;28;20178;-74
2024/01/20 11:35:16;;;;;;;19.40;12.43;;;0.90;99.90;;;;;;5106481;28;20167;-76
2024/01/20 11:37:42;;;;;;;18.07;12.37;;;1.00;99.90;;;;;;5112882;28;20206;-77
2024/01/20 11:40:09;;;;;;;19.98;13.25;;;1.00;99.90;;;;;;5117213;28;20171;-75
2024/01/20 11:42:35;;;;;;;16.55;11.15;;;0.90;99.90;;;;;;5097848;28;20183;-77
2024/01/20 11:45:03;;;;;;;14.13;11.27;;;1.00;99.90;;;;;;5097886;28;20232;-76
2024/01/20 11:47:29;;;;;;;15.02;10.75;;;1.00;99.90;;;;;;5102818;28;20191;-76
2024/01/20 11:49:57;;;;;;;13.27;9.68;;;1.10;99.90;;;;;;5083492;28;20199;-76
2024/01/20 11:52:24;;;;;;;25.55;14.20;;;1.20;99.90;;;;;;5101648;28;20818;-76
2024/01/20 11:54:50;;;;;;;22.73;13.45;;;1.20;99.90;;;;;;5100372;28;20624;-76
2024/01/20 11:57:35;;;;;;;23.33;13.93;;;1.30;99.90;;;;;;5096799;28;20236;-77
2024/01/20 12:00:00;;;;;;;18.35;11.15;;;1.30;99.90;;;;;;5098326;28;21007;-77
2024/01/20 12:02:28;;;;;;;17.58;9.68;;;1.40;99.90;;;;;;5081270;28;20178;-76
2024/01/20 12:04:57;;;;;;;18.02;11.05;;;1.40;99.90;;;;;;5081647;28;20294;-77
2024/01/20 12:07:23;;;;;;;15.02;10.20;;;1.40;99.90;;;;;;5098562;28;20186;-77
2024/01/20 12:09:49;;;;;;;15.17;11.50;;;1.40;99.90;;;;;;5058522;28;20255;-76
2024/01/20 12:12:16;;;;;;;18.53;11.30;;;1.50;99.90;;;;;;5073163;28;20589;-76
2024/01/20 12:14:43;;;;;;;14.15;10.70;;;1.50;99.90;;;;;;5089121;28;20589;-76
2024/01/20 12:17:13;;;;;;;17.08;13.32;;;1.50;99.90;;;;;;5091738;28;20199;-75
2024/01/20 12:19:39;;;;;;;17.92;10.32;;;1.50;99.90;;;;;;5078958;28;20525;-75
2024/01/20 12:22:14;;;;;;;22.80;13.88;;;1.50;99.90;;;;;;5089493;28;20594;-76
2024/01/20 12:24:48;;;;;;;19.60;11.45;;;1.50;99.90;;;;;;5091721;28;20202;-76
2024/01/20 12:27:15;;;;;;;19.80;12.48;;;1.60;99.90;;;;;;5101450;28;20325;-76